РПИ Санкт-Петербург

РПИ Санкт-Петербург

РПИ Санкт-Петербург является структурным подразделением VATRUS.

В зону ответственности РПИ в сети VATSIM входит воздушное пространство над территориями Ленинградской, Новгородской, Псковской, Вологодской области, Мурманской, Архангельской областями, а так же Республики Карелия и Коми, Ненецкого АО.

Руководство

Alexey Kaznakov

Начальник РегЦ ЕС ОрВД (Санкт-Петербург)

Ekaterina Romanova

Руководитель АузДЦ ЕС Санкт-Петербург
Инструкторы РПИ
Akhmadjon Saidov (Instructor)
Alexandr Vaganov (Instructor)
Alexey Kaznakov (Instructor)
Dmitry Bugaychuk (Instructor)
Ekaterina Romanova (Instructor)
Maxim Demidov * (Controller)
Nikita Assorov (Instructor)
Stanley Yorke * (Controller)
Yury Koryagin (Instructor)
Входит в состав
Северо-западная Россия

Диспетчеры РПИ

Диспетчер Рейтинг Допуски *
Akhmadjon Saidov Instructor ULLL_CTR
Aleksandr Manko Controller ULLL_CTR
Alexandr Vaganov Instructor ULLL_CTR
Alexey Zimin Senior Controller ULLL_CTR
Dmitry Bugaychuk Instructor ULLL_CTR
Ekaterina Romanova Instructor ULLL_CTR
Maxim Demidov Controller ULLL_CTR
Mihail Kolesnik Controller ULLL_CTR
Oleg Alov Senior Student ULLL_CTR  *, ULLL_1_APP, ULLL_APP, ULLL_2_APP, ULMM_R_APP!!!
Serafim Bedershtet Controller ULLL_CTR
Stanley Yorke Controller ULLL_CTR
Vadim Drachev Controller ULLL_CTR
Yan Stetsenko Controller ULLL_CTR
Pavel Gavrilov Senior Student ULLL_APP, ULLL_2_APP, ULLL_1_APP
Akmal Idrissov Senior Student ULLL_2_APP, ULLL_1_APP, ULLL_APP
Aleksandr Mirtov Student ULLI_GND
Alexandr Sosnovsky Senior Student ULAA_APP, ULLL_1_APP, ULLL_APP, ULLL_2_APP
Andrey Tarasov Student 2 ULLI_2_TWR, ULLI_1_TWR, ULLI_3_TWR, ULLI_TWR
Andrey Volanskiy Student 2 ULLI_3_TWR, ULLI_TWR, ULLI_2_TWR, ULLI_1_TWR
Arseny Sitnikov Student 2 ULLI_TWR, ULLI_2_TWR, ULLI_1_TWR, ULLI_3_TWR
Artem Badalov Senior Student ULLL_2_APP, ULLL_1_APP, ULLL_APP
Artem Makarov Student ULLI_1_TWR*, ULLI_3_TWR*, ULLI_TWR*, ULLI_GND, ULLI_2_TWR*
Daniil Kayruk Student 2 ULLI_1_TWR, ULLI_3_TWR, ULLI_TWR, ULLI_2_TWR
David Markarian Student 2 ULLI_TWR, ULLI_2_TWR, ULLI_1_TWR, ULLI_3_TWR
Dmitrii Ermakov Student 2 ULLI_1_TWR, ULLI_3_TWR, ULLI_TWR, ULLI_2_TWR
Dmitry Berezin Student ULLI_3_TWR*, ULLI_TWR*, ULLI_GND, ULLI_2_TWR*, ULLI_1_TWR*
Grigoriy Novikov Student ULLI_GND
Ilya Kulikov Student ULLI_GND
Ivan Chumakov Student 2 ULLI_1_TWR, ULLI_3_TWR, ULLI_TWR, ULLI_2_TWR
Johan Nasstrom Student 2 ULLI_1_TWR, ULLI_3_TWR, ULLI_TWR, ULLI_2_TWR
Mikhail Satsik Senior Student ULLL_1_APP, ULLL_APP, ULLL_2_APP
Nikita Ovsyannikov Student 2 ULLI_3_TWR, ULLI_TWR, ULLI_2_TWR, ULLI_1_TWR
Nikita Voytko Senior Student ULLL_1_APP, ULLL_APP, ULLL_2_APP
Pavel Romanov Student ULLI_GND
Robert Farber Controller ULLL_2_APP, ULLL_1_APP, ULLL_APP
Sasha Klyucharev Student 2 ULLI_1_TWR, ULLI_3_TWR, ULLI_TWR, ULLI_2_TWR
Sofya Belyaeva Student 2 ULLI_3_TWR, ULLI_TWR, ULLI_2_TWR, ULLI_1_TWR
Viktor Ivanov Student ULLI_GND
Yakov Polushkin Student 2 ULLI_TWR, ULLI_2_TWR, ULLI_1_TWR, ULLI_3_TWR
Yury Pushkaryov Student 2 ULAA_TWR, ULLI_1_TWR, ULLI_3_TWR, ULLI_TWR, ULLI_R_APP*, ULLI_2_TWR

Аэропорты РПИ

ICAO Город Название Погода
ULLI Санкт-Петербург Пулково ULLI 100730Z 17003MPS 2400 1000E BR OVC002 M06/M07 Q1014 R10L/520545 NOSIG RMK QBB060 OBST OBSC
ULAA Архангельск Архангельск ULAA 100730Z 10006MPS 4700 -SHSN OVC004CB M09/M10 Q1024 R08/490538 NOSIG RMK QBB130 QFE767/1023
ULKK Котлас Котлас
XLLV Левашово Левашово
ULMM Мурманск Мурманск ULMM 100730Z 09002MPS CAVOK M10/M12 Q1026 R13/390049 NOSIG RMK QFE763
ULAM Нарьян-Мар Нарьян-Мар
ULPB Петрозаводск Бесовец ULPB 100730Z VRB01MPS 5000 -SHSN SCT027 BKN044CB M04/M05 Q1015 R19///99// NOSIG RMK QFE757/1010
ULOO Псков Псков ULOO 100730Z VRB01MPS 1000 0500S R19/1000U FZFG VV002 M08/M09 Q1014 R19/990433 NOSIG RMK QBB070 OBST OBSC QFE756
UUYY Сыктывкар Сыктывкар UUYY 100730Z 04004MPS 6000 -SN FEW008 OVC024 M14/M15 Q1024 R36/490339 NOSIG RMK QFE759/1012
ULWC Череповец Череповец ULWC 100730Z 13001MPS 3300 -SHSN BKN004 OVC013CB M06/M07 Q1015 R21/490331 TEMPO 1500 SHSN BKN003 BKN013CB RMK QBB140 QFE751/1002